Time;durP1;ratioP1;P1;durP2;ratioP2;P2;SDS_P1;SDS_P2;PMS_P1;PMS_P2;Temp;Humidity;BMP_temperature;BMP_pressure;BME280_temperature;BME280_humidity;BME280_pressure;Samples;Min_cycle;Max_cycle;Signal;HPM_P1;HPM_P2
2023/08/14 00:00:50;;;;;;;6.82;4.55;;;;;;;;;;4991343;28;20026;-56
2023/08/14 00:03:15;;;;;;;7.77;4.27;;;;;;;;;;4993269;28;20037;-55
2023/08/14 00:05:40;;;;;;;7.00;4.72;;;;;;;;;;4994398;28;20342;-56
2023/08/14 00:08:05;;;;;;;6.33;4.43;;;;;;;;;;4993034;28;20464;-55
2023/08/14 00:10:31;;;;;;;6.03;4.47;;;;;;;;;;4992346;28;20331;-56
2023/08/14 00:12:56;;;;;;;6.20;4.10;;;;;;;;;;4992711;28;20041;-56
2023/08/14 00:15:21;;;;;;;6.90;4.50;;;;;;;;;;4995824;28;20126;-56
2023/08/14 00:17:47;;;;;;;5.03;4.13;;;;;;;;;;4993887;28;20358;-55
2023/08/14 00:20:12;;;;;;;7.20;3.93;;;;;;;;;;4994557;28;20049;-55
2023/08/14 00:22:37;;;;;;;5.90;4.03;;;;;;;;;;4996614;28;20361;-55
2023/08/14 00:25:02;;;;;;;6.93;3.83;;;;;;;;;;4993087;28;20293;-55
2023/08/14 00:27:28;;;;;;;7.15;3.67;;;;;;;;;;4991288;28;20053;-55
2023/08/14 00:29:53;;;;;;;5.53;4.13;;;;;;;;;;5005094;28;20042;-56
2023/08/14 00:32:18;;;;;;;5.97;3.83;;;;;;;;;;5019805;28;20099;-55
2023/08/14 00:34:43;;;;;;;4.70;3.80;;;;;;;;;;5006914;28;20033;-56
2023/08/14 00:37:09;;;;;;;5.10;3.87;;;;;;;;;;5020681;28;20104;-55
2023/08/14 00:39:34;;;;;;;4.67;3.33;;;;;;;;;;5003783;28;21113;-55
2023/08/14 00:41:59;;;;;;;4.73;3.53;;;;;;;;;;5004986;28;20754;-54
2023/08/14 00:44:24;;;;;;;5.67;3.80;;;;;;;;;;5005140;28;20712;-55
2023/08/14 00:46:50;;;;;;;5.05;3.63;;;;;;;;;;5004883;28;20495;-55
2023/08/14 00:49:16;;;;;;;4.80;3.85;;;;;;;;;;5004485;28;20049;-55
2023/08/14 00:51:41;;;;;;;5.43;4.03;;;;;;;;;;4986747;28;20057;-55
2023/08/14 00:54:06;;;;;;;5.73;3.73;;;;;;;;;;5005213;28;20030;-56
2023/08/14 00:56:31;;;;;;;5.47;4.00;;;;;;;;;;4987253;28;20273;-55
2023/08/14 00:58:57;;;;;;;6.50;3.77;;;;;;;;;;4986719;28;20038;-55
2023/08/14 01:01:22;;;;;;;5.43;3.57;;;;;;;;;;5004059;28;20458;-55
2023/08/14 01:03:47;;;;;;;5.72;3.85;;;;;;;;;;4992893;28;21087;-55
2023/08/14 01:06:12;;;;;;;6.90;4.23;;;;;;;;;;5013416;28;20076;-54
2023/08/14 01:08:38;;;;;;;6.67;3.93;;;;;;;;;;5023657;28;20291;-56
2023/08/14 01:11:12;;;;;;;5.10;4.00;;;;;;;;;;5001893;28;20288;-56
2023/08/14 01:13:37;;;;;;;5.47;3.80;;;;;;;;;;5000996;28;20272;-55
2023/08/14 01:16:07;;;;;;;6.68;3.97;;;;;;;;;;5023980;28;20529;-55
2023/08/14 01:18:32;;;;;;;5.60;4.13;;;;;;;;;;5023717;28;20040;-56
2023/08/14 01:21:17;;;;;;;7.18;4.25;;;;;;;;;;5031169;28;20846;-55
2023/08/14 01:23:52;;;;;;;5.32;4.07;;;;;;;;;;5023212;28;20037;-55
2023/08/14 01:26:17;;;;;;;5.53;4.00;;;;;;;;;;5024026;28;20494;-55
2023/08/14 01:28:43;;;;;;;5.45;4.22;;;;;;;;;;5024036;28;20048;-53
2023/08/14 01:31:08;;;;;;;6.18;4.40;;;;;;;;;;5005708;28;20048;-55
2023/08/14 01:33:33;;;;;;;6.53;4.67;;;;;;;;;;5023647;28;20041;-56
2023/08/14 01:36:02;;;;;;;8.07;4.30;;;;;;;;;;5040203;28;20657;-56
2023/08/14 01:38:45;;;;;;;4.80;4.20;;;;;;;;;;4999569;28;20056;-55
2023/08/14 01:41:13;;;;;;;5.13;3.63;;;;;;;;;;4986452;28;20706;-55
2023/08/14 01:43:47;;;;;;;6.57;3.83;;;;;;;;;;5003924;28;20404;-54
2023/08/14 01:46:12;;;;;;;6.60;4.18;;;;;;;;;;5003708;28;20033;-55
2023/08/14 01:48:38;;;;;;;6.33;3.90;;;;;;;;;;4986039;28;20479;-55
2023/08/14 01:51:03;;;;;;;5.43;3.67;;;;;;;;;;4988178;28;20045;-55
2023/08/14 01:53:28;;;;;;;5.88;4.07;;;;;;;;;;5023580;28;20061;-55
2023/08/14 01:55:53;;;;;;;4.97;3.37;;;;;;;;;;5023517;28;20124;-57
2023/08/14 01:58:19;;;;;;;5.57;4.00;;;;;;;;;;5023559;28;20077;-56
2023/08/14 02:00:44;;;;;;;6.30;3.77;;;;;;;;;;5023811;28;20018;-55
2023/08/14 02:03:09;;;;;;;6.03;4.10;;;;;;;;;;5021706;28;20330;-55
2023/08/14 02:05:34;;;;;;;6.18;3.80;;;;;;;;;;5038503;28;20278;-57
2023/08/14 02:08:00;;;;;;;6.23;4.03;;;;;;;;;;5037971;28;20435;-55
2023/08/14 02:10:25;;;;;;;4.20;3.65;;;;;;;;;;5030716;28;20440;-55
2023/08/14 02:12:50;;;;;;;4.53;3.70;;;;;;;;;;5028886;28;20112;-55
2023/08/14 02:15:16;;;;;;;5.53;4.00;;;;;;;;;;5023571;28;20319;-54
2023/08/14 02:17:41;;;;;;;4.18;3.53;;;;;;;;;;5022985;28;20276;-55
2023/08/14 02:20:08;;;;;;;5.60;3.53;;;;;;;;;;5022231;28;20056;-56
2023/08/14 02:22:33;;;;;;;5.25;3.60;;;;;;;;;;4996417;28;20723;-55
2023/08/14 02:24:58;;;;;;;5.90;3.90;;;;;;;;;;5009350;28;20459;-56
2023/08/14 02:27:23;;;;;;;5.93;3.87;;;;;;;;;;4994474;28;20766;-56
2023/08/14 02:29:49;;;;;;;6.72;4.10;;;;;;;;;;4992977;28;20312;-55
2023/08/14 02:32:14;;;;;;;4.88;3.58;;;;;;;;;;4995608;28;20037;-55
2023/08/14 02:34:46;;;;;;;6.43;4.27;;;;;;;;;;4994997;28;20022;-56
2023/08/14 02:37:12;;;;;;;4.70;3.83;;;;;;;;;;4992163;28;20747;-55
2023/08/14 02:39:37;;;;;;;5.15;3.70;;;;;;;;;;4987235;28;20120;-55
2023/08/14 02:42:03;;;;;;;5.88;4.30;;;;;;;;;;4994581;28;20028;-55
2023/08/14 02:44:28;;;;;;;5.82;4.15;;;;;;;;;;5007271;28;20523;-56
2023/08/14 02:46:54;;;;;;;5.00;4.00;;;;;;;;;;5005588;28;20060;-56
2023/08/14 02:49:19;;;;;;;6.32;4.20;;;;;;;;;;4989078;28;20366;-55
2023/08/14 02:51:44;;;;;;;5.43;3.60;;;;;;;;;;5009602;28;20048;-55
2023/08/14 02:54:09;;;;;;;5.43;3.93;;;;;;;;;;5007239;28;20503;-56
2023/08/14 02:56:34;;;;;;;6.27;4.33;;;;;;;;;;5006999;28;20049;-56
2023/08/14 02:59:00;;;;;;;5.23;3.93;;;;;;;;;;5006987;28;20269;-55
2023/08/14 03:01:25;;;;;;;5.30;4.20;;;;;;;;;;5006624;28;20076;-55
2023/08/14 03:03:50;;;;;;;5.47;4.10;;;;;;;;;;4988428;28;20291;-55
2023/08/14 03:06:17;;;;;;;6.40;4.10;;;;;;;;;;5006988;28;20344;-55
2023/08/14 03:08:42;;;;;;;5.57;4.55;;;;;;;;;;5005287;28;20308;-55
2023/08/14 03:11:07;;;;;;;5.18;4.38;;;;;;;;;;5006637;28;20120;-55
2023/08/14 03:13:33;;;;;;;8.30;4.70;;;;;;;;;;5005795;28;20488;-55
2023/08/14 03:15:58;;;;;;;7.83;4.67;;;;;;;;;;5021768;28;20521;-57
2023/08/14 03:18:23;;;;;;;5.83;4.00;;;;;;;;;;5006402;28;21382;-56
2023/08/14 03:20:48;;;;;;;5.00;4.07;;;;;;;;;;5006359;28;21036;-59
2023/08/14 03:23:14;;;;;;;6.28;4.32;;;;;;;;;;5009508;28;20307;-55
2023/08/14 03:25:39;;;;;;;5.63;4.07;;;;;;;;;;5013367;28;20427;-55
2023/08/14 03:28:04;;;;;;;5.77;4.00;;;;;;;;;;5025054;28;20639;-55
2023/08/14 03:30:30;;;;;;;5.78;4.32;;;;;;;;;;5005107;28;20292;-56
2023/08/14 03:32:55;;;;;;;5.63;4.07;;;;;;;;;;5005563;28;20029;-54
2023/08/14 03:35:20;;;;;;;5.97;3.87;;;;;;;;;;5006353;28;20515;-55
2023/08/14 03:37:45;;;;;;;6.47;4.30;;;;;;;;;;5006132;28;20454;-55
2023/08/14 03:40:11;;;;;;;6.23;4.20;;;;;;;;;;4988822;28;20509;-55
2023/08/14 03:42:36;;;;;;;7.03;4.72;;;;;;;;;;5005604;28;20585;-55
2023/08/14 03:45:01;;;;;;;5.47;4.30;;;;;;;;;;5005898;28;20029;-55
2023/08/14 03:47:27;;;;;;;5.85;4.10;;;;;;;;;;5004298;28;20280;-55
2023/08/14 03:49:52;;;;;;;8.00;4.30;;;;;;;;;;5006072;28;20049;-55
2023/08/14 03:52:17;;;;;;;5.60;4.38;;;;;;;;;;5020823;28;20268;-55
2023/08/14 03:54:42;;;;;;;7.13;5.00;;;;;;;;;;5006115;28;20038;-55
2023/08/14 03:57:07;;;;;;;5.07;3.90;;;;;;;;;;4988680;28;21031;-55
2023/08/14 03:59:33;;;;;;;6.20;4.50;;;;;;;;;;5005855;28;20091;-55
2023/08/14 04:01:58;;;;;;;7.13;4.40;;;;;;;;;;5004945;28;20308;-56
2023/08/14 04:04:23;;;;;;;6.33;4.80;;;;;;;;;;5017716;28;20272;-56
2023/08/14 04:06:49;;;;;;;7.53;4.40;;;;;;;;;;5021285;28;20034;-55
2023/08/14 04:09:15;;;;;;;7.43;4.75;;;;;;;;;;5018504;28;20285;-55
2023/08/14 04:11:40;;;;;;;5.68;4.25;;;;;;;;;;5006765;28;20426;-55
2023/08/14 04:14:05;;;;;;;6.77;4.50;;;;;;;;;;5007580;28;20073;-54
2023/08/14 04:16:49;;;;;;;6.40;4.43;;;;;;;;;;5005835;28;20135;-55
2023/08/14 04:19:15;;;;;;;6.03;4.10;;;;;;;;;;5004243;28;20038;-55
2023/08/14 04:21:40;;;;;;;5.97;4.13;;;;;;;;;;5005561;28;20180;-54
2023/08/14 04:24:06;;;;;;;11.07;4.70;;;;;;;;;;5005130;28;20038;-55
2023/08/14 04:26:31;;;;;;;7.07;4.80;;;;;;;;;;5005624;28;20048;-54
2023/08/14 04:28:57;;;;;;;6.30;4.38;;;;;;;;;;5005197;28;20231;-54
2023/08/14 04:31:22;;;;;;;6.90;4.10;;;;;;;;;;5005256;28;20046;-55
2023/08/14 04:33:47;;;;;;;6.23;4.77;;;;;;;;;;5003397;28;20808;-55
2023/08/14 04:36:12;;;;;;;6.10;5.20;;;;;;;;;;5005515;28;20608;-55
2023/08/14 04:38:37;;;;;;;8.00;4.50;;;;;;;;;;5005112;28;20443;-55
2023/08/14 04:41:03;;;;;;;6.60;4.60;;;;;;;;;;5005228;28;20597;-55
2023/08/14 04:43:31;;;;;;;8.30;4.97;;;;;;;;;;5004690;28;20034;-55
2023/08/14 04:45:56;;;;;;;6.03;4.10;;;;;;;;;;5005039;28;20049;-54
2023/08/14 04:48:22;;;;;;;6.18;4.35;;;;;;;;;;5004725;28;20041;-55
2023/08/14 04:50:47;;;;;;;7.10;4.50;;;;;;;;;;5004906;28;20050;-54
2023/08/14 04:53:12;;;;;;;6.07;4.43;;;;;;;;;;5005064;28;20292;-55
2023/08/14 04:55:37;;;;;;;6.83;4.13;;;;;;;;;;5003832;28;20836;-54
2023/08/14 04:58:03;;;;;;;7.72;4.38;;;;;;;;;;5001794;28;20276;-54
2023/08/14 05:00:28;;;;;;;8.43;4.55;;;;;;;;;;5011455;28;20508;-55
2023/08/14 05:02:53;;;;;;;8.57;4.23;;;;;;;;;;5005148;28;20443;-54
2023/08/14 05:05:19;;;;;;;6.68;4.43;;;;;;;;;;5004107;28;20046;-55
2023/08/14 05:07:45;;;;;;;6.97;5.00;;;;;;;;;;5005078;28;20475;-54
2023/08/14 05:10:10;;;;;;;7.30;5.00;;;;;;;;;;5004483;28;20372;-53
2023/08/14 05:12:35;;;;;;;6.25;4.35;;;;;;;;;;5004786;28;20472;-54
2023/08/14 05:15:00;;;;;;;7.60;4.63;;;;;;;;;;5002672;28;20522;-54
2023/08/14 05:17:26;;;;;;;8.10;4.70;;;;;;;;;;5004501;28;20273;-54
2023/08/14 05:19:51;;;;;;;6.97;4.13;;;;;;;;;;5005150;28;20030;-55
2023/08/14 05:22:19;;;;;;;6.57;4.80;;;;;;;;;;5005028;28;20836;-54
2023/08/14 05:24:44;;;;;;;5.70;4.60;;;;;;;;;;5002525;28;20512;-54
2023/08/14 05:27:09;;;;;;;6.40;4.73;;;;;;;;;;5004512;28;20057;-55
2023/08/14 05:29:35;;;;;;;5.07;4.27;;;;;;;;;;5004028;28;21072;-55
2023/08/14 05:32:00;;;;;;;6.30;4.60;;;;;;;;;;4990350;28;20398;-55
2023/08/14 05:34:25;;;;;;;7.07;4.80;;;;;;;;;;4992378;28;20035;-56
2023/08/14 05:36:50;;;;;;;5.97;4.20;;;;;;;;;;4991441;28;20061;-55
2023/08/14 05:39:18;;;;;;;8.47;4.67;;;;;;;;;;4991095;28;20771;-56
2023/08/14 05:41:43;;;;;;;7.28;4.70;;;;;;;;;;4992849;28;20294;-55
2023/08/14 05:44:08;;;;;;;7.40;4.83;;;;;;;;;;4991742;28;20037;-55
2023/08/14 05:46:33;;;;;;;6.77;4.37;;;;;;;;;;4990892;28;20030;-57
2023/08/14 05:48:59;;;;;;;7.60;4.43;;;;;;;;;;4990491;28;20347;-56
2023/08/14 05:51:24;;;;;;;5.83;4.47;;;;;;;;;;4990072;28;20305;-55
2023/08/14 05:53:49;;;;;;;7.97;4.43;;;;;;;;;;4971659;28;20658;-56
2023/08/14 05:56:14;;;;;;;5.90;3.83;;;;;;;;;;4990225;28;20293;-55
2023/08/14 05:58:40;;;;;;;6.20;3.75;;;;;;;;;;4990080;28;20129;-56
2023/08/14 06:01:05;;;;;;;7.57;4.23;;;;;;;;;;4979252;28;20068;-55
2023/08/14 06:03:30;;;;;;;7.47;4.50;;;;;;;;;;4990379;28;20284;-56
2023/08/14 06:05:55;;;;;;;10.97;4.80;;;;;;;;;;4990950;28;20396;-56
2023/08/14 06:08:21;;;;;;;7.47;4.13;;;;;;;;;;4994382;28;20136;-56
2023/08/14 06:10:46;;;;;;;8.87;4.17;;;;;;;;;;4996963;28;20074;-56
2023/08/14 06:13:11;;;;;;;8.95;4.50;;;;;;;;;;4994200;28;20884;-56
2023/08/14 06:15:36;;;;;;;6.57;3.77;;;;;;;;;;5003473;28;20505;-55
2023/08/14 06:18:02;;;;;;;7.87;3.80;;;;;;;;;;5015084;28;20376;-56
2023/08/14 06:20:27;;;;;;;6.63;3.80;;;;;;;;;;5014049;28;20116;-56
2023/08/14 06:22:53;;;;;;;7.78;4.10;;;;;;;;;;4995645;28;20037;-57
2023/08/14 06:25:19;;;;;;;6.50;3.78;;;;;;;;;;5002101;28;20050;-57
2023/08/14 06:27:44;;;;;;;10.57;4.18;;;;;;;;;;4995107;28;20484;-55
2023/08/14 06:30:10;;;;;;;5.95;3.85;;;;;;;;;;4994501;28;20076;-55
2023/08/14 06:32:36;;;;;;;6.50;3.65;;;;;;;;;;4992888;28;20026;-55
2023/08/14 06:35:02;;;;;;;6.60;4.35;;;;;;;;;;4992432;28;20034;-56
2023/08/14 06:37:27;;;;;;;6.47;4.00;;;;;;;;;;4991628;28;20504;-55
2023/08/14 06:39:52;;;;;;;6.70;3.73;;;;;;;;;;5000050;28;20036;-55
2023/08/14 06:42:18;;;;;;;6.70;3.53;;;;;;;;;;5012564;28;20288;-56
2023/08/14 06:44:43;;;;;;;5.60;3.20;;;;;;;;;;5012414;28;20512;-56
2023/08/14 06:47:08;;;;;;;5.88;3.30;;;;;;;;;;5015190;28;20475;-56
2023/08/14 06:49:33;;;;;;;4.80;3.20;;;;;;;;;;5012963;28;20539;-56
2023/08/14 06:51:59;;;;;;;5.40;3.50;;;;;;;;;;5003608;28;20038;-56
2023/08/14 06:54:24;;;;;;;7.17;3.30;;;;;;;;;;4976461;28;20054;-54
2023/08/14 06:56:50;;;;;;;7.53;3.42;;;;;;;;;;4983746;28;20390;-55
2023/08/14 06:59:15;;;;;;;7.25;3.58;;;;;;;;;;4991573;28;20038;-57
2023/08/14 07:01:41;;;;;;;4.90;3.40;;;;;;;;;;5003952;28;20515;-56
2023/08/14 07:04:07;;;;;;;4.40;3.38;;;;;;;;;;5012921;28;20040;-55
2023/08/14 07:06:32;;;;;;;6.53;3.20;;;;;;;;;;5012695;28;20034;-55
2023/08/14 07:08:57;;;;;;;5.53;3.57;;;;;;;;;;5001998;28;20032;-55
2023/08/14 07:11:22;;;;;;;6.27;3.40;;;;;;;;;;4992868;28;20148;-55
2023/08/14 07:13:47;;;;;;;6.30;3.27;;;;;;;;;;4993830;28;20304;-55
2023/08/14 07:16:13;;;;;;;4.13;2.47;;;;;;;;;;4993634;28;20034;-55
2023/08/14 07:18:38;;;;;;;4.80;3.00;;;;;;;;;;4991503;28;20328;-55
2023/08/14 07:21:03;;;;;;;5.20;3.00;;;;;;;;;;4993026;28;20386;-56
2023/08/14 07:23:29;;;;;;;4.55;3.30;;;;;;;;;;4991475;28;20285;-56
2023/08/14 07:25:55;;;;;;;4.55;3.13;;;;;;;;;;4993249;28;20042;-56
2023/08/14 07:28:20;;;;;;;4.15;2.95;;;;;;;;;;4993218;28;20029;-56
2023/08/14 07:30:45;;;;;;;5.07;3.10;;;;;;;;;;4993100;28;20088;-56
2023/08/14 07:33:13;;;;;;;4.73;2.87;;;;;;;;;;4980367;28;20317;-56
2023/08/14 07:35:38;;;;;;;4.57;2.92;;;;;;;;;;4980792;28;20052;-58
2023/08/14 07:38:04;;;;;;;4.38;2.67;;;;;;;;;;4992976;28;20049;-55
2023/08/14 07:40:29;;;;;;;3.22;2.85;;;;;;;;;;4994223;28;20804;-55
2023/08/14 07:42:54;;;;;;;4.90;2.88;;;;;;;;;;4993275;28;20108;-56
2023/08/14 07:45:19;;;;;;;4.97;2.53;;;;;;;;;;4985022;28;20061;-55
2023/08/14 07:47:45;;;;;;;8.57;2.80;;;;;;;;;;4996535;28;20550;-56
2023/08/14 07:50:10;;;;;;;4.13;2.70;;;;;;;;;;4994286;28;20312;-55
2023/08/14 07:52:35;;;;;;;5.10;2.80;;;;;;;;;;4993978;28;20038;-55
2023/08/14 07:55:01;;;;;;;5.30;2.47;;;;;;;;;;5005093;28;20069;-55
2023/08/14 07:57:26;;;;;;;5.80;2.67;;;;;;;;;;5004161;28;20277;-54
2023/08/14 07:59:52;;;;;;;4.57;2.60;;;;;;;;;;5005636;28;20042;-54
2023/08/14 08:02:17;;;;;;;3.13;2.27;;;;;;;;;;5006265;28;20503;-56
2023/08/14 08:04:42;;;;;;;3.83;2.33;;;;;;;;;;5005957;28;20265;-55
2023/08/14 08:07:07;;;;;;;5.38;2.60;;;;;;;;;;5011716;28;20033;-54
2023/08/14 08:09:33;;;;;;;3.22;2.40;;;;;;;;;;5004224;28;20092;-54
2023/08/14 08:11:58;;;;;;;4.23;2.57;;;;;;;;;;5005699;28;20447;-54
2023/08/14 08:14:23;;;;;;;4.00;2.57;;;;;;;;;;5005538;28;20030;-56
2023/08/14 08:16:49;;;;;;;4.13;2.70;;;;;;;;;;4985129;28;20331;-55
2023/08/14 08:19:14;;;;;;;3.05;2.63;;;;;;;;;;4987478;28;20041;-54
2023/08/14 08:21:39;;;;;;;5.40;2.45;;;;;;;;;;5005018;28;20038;-55
2023/08/14 08:24:05;;;;;;;4.00;2.67;;;;;;;;;;5005046;28;20072;-55
2023/08/14 08:26:30;;;;;;;4.18;2.60;;;;;;;;;;5004506;28;20026;-55
2023/08/14 08:28:55;;;;;;;3.03;2.53;;;;;;;;;;5005362;28;20145;-55
2023/08/14 08:31:21;;;;;;;4.63;2.67;;;;;;;;;;5005011;28;20041;-55
2023/08/14 08:33:46;;;;;;;4.20;2.50;;;;;;;;;;5012401;28;20041;-54
2023/08/14 08:36:11;;;;;;;5.73;2.53;;;;;;;;;;5030116;28;20277;-56
2023/08/14 08:38:36;;;;;;;4.27;2.60;;;;;;;;;;5024986;28;20753;-56
2023/08/14 08:41:02;;;;;;;5.27;2.80;;;;;;;;;;5027423;28;20416;-55
2023/08/14 08:43:27;;;;;;;6.38;2.50;;;;;;;;;;5016142;28;20033;-55
2023/08/14 08:45:54;;;;;;;5.45;2.97;;;;;;;;;;5029874;28;20065;-55
2023/08/14 08:48:20;;;;;;;4.78;2.75;;;;;;;;;;5010343;28;20087;-55
2023/08/14 08:50:46;;;;;;;3.58;2.60;;;;;;;;;;5044934;28;20045;-55
2023/08/14 08:53:11;;;;;;;4.00;2.53;;;;;;;;;;5024403;28;20431;-56
2023/08/14 08:55:36;;;;;;;3.20;2.50;;;;;;;;;;5024931;28;20103;-56
2023/08/14 08:58:02;;;;;;;5.77;2.80;;;;;;;;;;4995592;28;21994;-56
2023/08/14 09:00:28;;;;;;;4.05;2.40;;;;;;;;;;4995892;28;20504;-55
2023/08/14 09:02:53;;;;;;;4.15;2.75;;;;;;;;;;4996384;28;20038;-56
2023/08/14 09:05:18;;;;;;;5.30;2.80;;;;;;;;;;5000296;28;20029;-58
2023/08/14 09:07:43;;;;;;;4.60;2.93;;;;;;;;;;5003009;28;20323;-58
2023/08/14 09:10:09;;;;;;;5.47;2.95;;;;;;;;;;5008642;28;20061;-58
2023/08/14 09:12:34;;;;;;;3.67;2.50;;;;;;;;;;4997022;28;20033;-58
2023/08/14 09:15:04;;;;;;;6.47;2.92;;;;;;;;;;4989541;28;20289;-56
2023/08/14 09:17:29;;;;;;;20.13;7.05;;;;;;;;;;4990898;28;20183;-57
2023/08/14 09:19:54;;;;;;;39.67;19.67;;;;;;;;;;4992573;28;20089;-57
2023/08/14 09:22:20;;;;;;;71.03;41.83;;;;;;;;;;4992433;28;20042;-56
2023/08/14 09:24:45;;;;;;;19.03;10.53;;;;;;;;;;4979844;28;20092;-56
2023/08/14 09:27:10;;;;;;;15.60;7.33;;;;;;;;;;4980224;28;20081;-57
2023/08/14 09:29:35;;;;;;;8.53;4.63;;;;;;;;;;4991724;28;20112;-56
2023/08/14 09:32:01;;;;;;;9.20;3.63;;;;;;;;;;4992010;28;20304;-56
2023/08/14 09:34:27;;;;;;;4.53;2.80;;;;;;;;;;4991475;28;20034;-57
2023/08/14 09:36:52;;;;;;;4.15;2.85;;;;;;;;;;4988828;28;20038;-56
2023/08/14 09:39:17;;;;;;;4.30;2.60;;;;;;;;;;4991994;28;20054;-56
2023/08/14 09:41:49;;;;;;;6.77;2.77;;;;;;;;;;4991505;28;20113;-57
2023/08/14 09:44:14;;;;;;;4.90;2.80;;;;;;;;;;4989023;28;20297;-57
2023/08/14 09:46:40;;;;;;;4.20;2.70;;;;;;;;;;4977058;28;20060;-57
2023/08/14 09:49:05;;;;;;;3.20;2.50;;;;;;;;;;5003832;28;20044;-57
2023/08/14 09:51:30;;;;;;;2.97;2.33;;;;;;;;;;5008722;28;20042;-58
2023/08/14 09:53:58;;;;;;;4.03;2.10;;;;;;;;;;5007247;28;20037;-59
2023/08/14 09:56:24;;;;;;;4.10;2.40;;;;;;;;;;4993477;28;20475;-57
2023/08/14 09:58:49;;;;;;;5.38;2.28;;;;;;;;;;4989338;28;20030;-57
2023/08/14 10:01:15;;;;;;;3.90;2.28;;;;;;;;;;4990272;28;20037;-57
2023/08/14 10:03:43;;;;;;;4.50;2.10;;;;;;;;;;4976844;28;20046;-57
2023/08/14 10:06:12;;;;;;;2.78;2.10;;;;;;;;;;4991202;28;20100;-58
2023/08/14 10:08:37;;;;;;;5.10;2.40;;;;;;;;;;4989578;28;20038;-58
2023/08/14 10:11:05;;;;;;;3.27;2.10;;;;;;;;;;4988722;28;20542;-57
2023/08/14 10:13:32;;;;;;;3.53;2.13;;;;;;;;;;5009069;28;20295;-58
2023/08/14 10:15:57;;;;;;;3.45;2.45;;;;;;;;;;5009017;28;20040;-58
2023/08/14 10:18:22;;;;;;;3.47;2.30;;;;;;;;;;4989417;28;20493;-56
2023/08/14 10:20:48;;;;;;;4.25;2.50;;;;;;;;;;4989412;28;20062;-57
2023/08/14 10:23:13;;;;;;;4.05;2.22;;;;;;;;;;4989944;28;20045;-57
2023/08/14 10:25:39;;;;;;;4.03;2.42;;;;;;;;;;4987573;28;20545;-58
2023/08/14 10:28:10;;;;;;;3.65;2.50;;;;;;;;;;4989733;28;20428;-57
2023/08/14 10:30:35;;;;;;;3.50;2.40;;;;;;;;;;4988890;28;20093;-59
2023/08/14 10:33:00;;;;;;;4.28;2.42;;;;;;;;;;4971161;28;20843;-58
2023/08/14 10:35:26;;;;;;;4.60;2.50;;;;;;;;;;4988342;28;20033;-57
2023/08/14 10:37:52;;;;;;;4.50;2.40;;;;;;;;;;4990185;28;20042;-58
2023/08/14 10:40:20;;;;;;;6.15;2.78;;;;;;;;;;4989341;28;20038;-58
2023/08/14 10:42:52;;;;;;;4.18;2.40;;;;;;;;;;5008618;28;20053;-57
2023/08/14 10:45:18;;;;;;;5.07;2.70;;;;;;;;;;5008119;28;20029;-58
2023/08/14 10:47:43;;;;;;;4.55;2.63;;;;;;;;;;5007493;28;20021;-58
2023/08/14 10:50:12;;;;;;;4.00;2.33;;;;;;;;;;5007521;28;20511;-58
2023/08/14 10:52:37;;;;;;;4.50;2.60;;;;;;;;;;5008686;28;20014;-59
2023/08/14 10:55:03;;;;;;;3.40;2.43;;;;;;;;;;5009835;28;20033;-59
2023/08/14 10:57:28;;;;;;;4.03;2.88;;;;;;;;;;5000928;28;20029;-59
2023/08/14 10:59:56;;;;;;;5.75;2.78;;;;;;;;;;4998255;28;20030;-56
2023/08/14 11:02:21;;;;;;;3.80;2.50;;;;;;;;;;5000551;28;20551;-55
2023/08/14 11:04:57;;;;;;;5.13;2.70;;;;;;;;;;5003140;28;20117;-55
2023/08/14 11:07:24;;;;;;;3.10;2.50;;;;;;;;;;4992454;28;20383;-55
2023/08/14 11:09:49;;;;;;;3.97;2.40;;;;;;;;;;4993584;28;20045;-56
2023/08/14 11:12:15;;;;;;;3.60;2.60;;;;;;;;;;5004792;28;20033;-57
2023/08/14 11:14:40;;;;;;;3.90;2.33;;;;;;;;;;5006822;28;20129;-56
2023/08/14 11:17:06;;;;;;;4.68;2.58;;;;;;;;;;4989118;28;20034;-57
2023/08/14 11:19:35;;;;;;;3.15;2.30;;;;;;;;;;5002437;28;20037;-56
2023/08/14 11:22:00;;;;;;;3.33;2.22;;;;;;;;;;5002687;28;20133;-56
2023/08/14 11:24:26;;;;;;;3.33;2.80;;;;;;;;;;4998465;28;20113;-56
2023/08/14 11:26:51;;;;;;;3.72;2.63;;;;;;;;;;4998412;28;20376;-56
2023/08/14 11:29:16;;;;;;;4.13;2.90;;;;;;;;;;4993552;28;20097;-56
2023/08/14 11:31:42;;;;;;;4.17;3.00;;;;;;;;;;4995072;28;20389;-56
2023/08/14 11:34:07;;;;;;;4.25;2.63;;;;;;;;;;4994757;28;20057;-56
2023/08/14 11:36:33;;;;;;;4.40;2.43;;;;;;;;;;4995999;28;20041;-56
2023/08/14 11:38:58;;;;;;;5.27;2.87;;;;;;;;;;4997356;28;20060;-56
2023/08/14 11:41:23;;;;;;;4.80;2.43;;;;;;;;;;4994582;28;20125;-55
2023/08/14 11:43:48;;;;;;;4.03;2.40;;;;;;;;;;4994609;28;20072;-56
2023/08/14 11:46:13;;;;;;;4.53;2.40;;;;;;;;;;4988372;28;20061;-56
2023/08/14 11:48:39;;;;;;;3.93;2.57;;;;;;;;;;4979589;28;20038;-55
2023/08/14 11:51:04;;;;;;;2.90;2.17;;;;;;;;;;4982521;28;20057;-55
2023/08/14 11:53:30;;;;;;;3.72;2.35;;;;;;;;;;4994290;28;20284;-55
2023/08/14 11:55:55;;;;;;;3.60;2.40;;;;;;;;;;4995939;28;20045;-55
2023/08/14 11:58:20;;;;;;;3.83;2.40;;;;;;;;;;4995420;28;20038;-54
2023/08/14 12:00:49;;;;;;;4.20;2.60;;;;;;;;;;5000108;28;20149;-54
2023/08/14 12:03:15;;;;;;;3.30;2.60;;;;;;;;;;4997520;28;20289;-56
2023/08/14 12:05:41;;;;;;;3.63;2.63;;;;;;;;;;4999875;28;20423;-56
2023/08/14 12:08:06;;;;;;;3.23;2.40;;;;;;;;;;4981003;28;20142;-56
2023/08/14 12:10:32;;;;;;;3.87;2.37;;;;;;;;;;4992576;28;20073;-56
2023/08/14 12:12:57;;;;;;;4.25;2.70;;;;;;;;;;4993760;28;20484;-55
2023/08/14 12:15:23;;;;;;;3.03;2.38;;;;;;;;;;4998891;28;20052;-56
2023/08/14 12:17:48;;;;;;;2.80;2.20;;;;;;;;;;5006140;28;20033;-55
2023/08/14 12:20:13;;;;;;;4.93;2.57;;;;;;;;;;5005137;28;20034;-56
2023/08/14 12:22:39;;;;;;;3.53;2.50;;;;;;;;;;5005118;28;20038;-55
2023/08/14 12:25:06;;;;;;;3.30;2.40;;;;;;;;;;5007930;28;20414;-55
2023/08/14 12:27:32;;;;;;;3.90;2.55;;;;;;;;;;5013833;28;20272;-55
2023/08/14 12:29:57;;;;;;;3.45;2.20;;;;;;;;;;5026241;28;20049;-54
2023/08/14 12:32:23;;;;;;;2.67;2.23;;;;;;;;;;5013355;28;20045;-57
2023/08/14 12:34:48;;;;;;;3.50;2.20;;;;;;;;;;5004488;28;20296;-58
2023/08/14 12:37:16;;;;;;;6.27;2.40;;;;;;;;;;5005068;28;20162;-57
2023/08/14 12:39:43;;;;;;;3.30;2.63;;;;;;;;;;5004555;28;20447;-57
2023/08/14 12:42:09;;;;;;;2.75;2.10;;;;;;;;;;4991479;28;20241;-58
2023/08/14 12:44:34;;;;;;;3.10;2.37;;;;;;;;;;4986348;28;20172;-57
2023/08/14 12:46:59;;;;;;;3.17;2.33;;;;;;;;;;5003919;28;20805;-55
2023/08/14 12:49:24;;;;;;;4.33;2.87;;;;;;;;;;5004223;28;20523;-56
2023/08/14 12:51:51;;;;;;;3.55;2.22;;;;;;;;;;5009904;28;20566;-55
2023/08/14 12:54:16;;;;;;;4.30;2.45;;;;;;;;;;5003742;28;20138;-54
2023/08/14 12:56:41;;;;;;;4.40;2.20;;;;;;;;;;5003867;28;20969;-56
2023/08/14 12:59:07;;;;;;;4.18;2.80;;;;;;;;;;5004629;28;20308;-57
2023/08/14 13:01:32;;;;;;;3.10;2.15;;;;;;;;;;5003657;28;20049;-55
2023/08/14 13:03:58;;;;;;;4.22;2.40;;;;;;;;;;5003975;28;20034;-55
2023/08/14 13:06:23;;;;;;;3.23;2.27;;;;;;;;;;5004758;28;20061;-56
2023/08/14 13:08:48;;;;;;;4.53;2.20;;;;;;;;;;5004823;28;20358;-57
2023/08/14 13:11:14;;;;;;;3.33;2.27;;;;;;;;;;5003733;28;20085;-57
2023/08/14 13:13:39;;;;;;;3.55;2.40;;;;;;;;;;5011384;28;20418;-55
2023/08/14 13:16:04;;;;;;;3.03;2.43;;;;;;;;;;5024590;28;20029;-57
2023/08/14 13:18:29;;;;;;;4.68;2.30;;;;;;;;;;5023428;28;20049;-55
2023/08/14 13:20:55;;;;;;;4.90;2.10;;;;;;;;;;5022264;28;20044;-54
2023/08/14 13:23:20;;;;;;;4.65;2.25;;;;;;;;;;5026527;28;20370;-56
2023/08/14 13:25:45;;;;;;;4.07;2.40;;;;;;;;;;5024255;28;20506;-56
2023/08/14 13:28:10;;;;;;;3.07;2.40;;;;;;;;;;5020465;28;20061;-55
2023/08/14 13:30:36;;;;;;;3.13;2.00;;;;;;;;;;5013044;28;20295;-55
2023/08/14 13:33:01;;;;;;;3.20;1.73;;;;;;;;;;5024145;28;20464;-55
2023/08/14 13:35:26;;;;;;;2.97;2.10;;;;;;;;;;5023241;28;20037;-56
2023/08/14 13:37:51;;;;;;;3.53;2.00;;;;;;;;;;5022871;28;20046;-54
2023/08/14 13:40:16;;;;;;;2.93;2.13;;;;;;;;;;5023643;28;20052;-55
2023/08/14 13:42:42;;;;;;;2.85;2.03;;;;;;;;;;5006460;28;20801;-55
2023/08/14 13:45:07;;;;;;;3.85;2.03;;;;;;;;;;5020046;28;20034;-55
2023/08/14 13:47:32;;;;;;;4.97;2.08;;;;;;;;;;5006198;28;20561;-56
2023/08/14 13:49:57;;;;;;;3.80;2.20;;;;;;;;;;5005928;28;20053;-57
2023/08/14 13:52:23;;;;;;;3.07;2.13;;;;;;;;;;5023069;28;20034;-57
2023/08/14 13:54:48;;;;;;;2.87;1.83;;;;;;;;;;5022385;28;20036;-57
2023/08/14 13:57:13;;;;;;;3.33;2.07;;;;;;;;;;5023612;28;20037;-57
2023/08/14 13:59:38;;;;;;;3.05;2.17;;;;;;;;;;5015120;28;20045;-57
2023/08/14 14:02:04;;;;;;;3.22;2.13;;;;;;;;;;5018368;28;20029;-56
2023/08/14 14:04:29;;;;;;;2.43;1.90;;;;;;;;;;5023776;28;20123;-57
2023/08/14 14:06:54;;;;;;;2.60;1.80;;;;;;;;;;5022155;28;20060;-57
2023/08/14 14:09:20;;;;;;;3.90;2.30;;;;;;;;;;5022653;28;20092;-56
2023/08/14 14:11:45;;;;;;;2.95;2.20;;;;;;;;;;5023459;28;20116;-57
2023/08/14 14:14:10;;;;;;;2.40;2.20;;;;;;;;;;5013840;28;20034;-57
2023/08/14 14:16:55;;;;;;;2.50;1.80;;;;;;;;;;5003959;28;20843;-56
2023/08/14 14:19:20;;;;;;;3.65;2.15;;;;;;;;;;5004953;28;20044;-58
2023/08/14 14:21:46;;;;;;;3.63;2.00;;;;;;;;;;5000831;28;20038;-57
2023/08/14 14:24:11;;;;;;;3.42;2.35;;;;;;;;;;4985757;28;20037;-56
2023/08/14 14:26:36;;;;;;;3.07;2.20;;;;;;;;;;5003851;28;20419;-57
2023/08/14 14:29:01;;;;;;;2.50;1.90;;;;;;;;;;5005348;28;20415;-56
2023/08/14 14:31:27;;;;;;;3.23;2.20;;;;;;;;;;5007097;28;20129;-55
2023/08/14 14:33:52;;;;;;;3.60;2.23;;;;;;;;;;5018664;28;20288;-55